Terminal Aerodrome Forecast
Issued by NWS

Current Version | Previous Version | Graphics & Text | Print | Product List | Glossary On
Versions: 1 2 3 4 5 6 7 8 9 10 11 12 13 14 15 16 17 18 19 20 21 22 23 24 25 26
345
FTUS41 KILN 021946 AAA
TAFLUK
TAF AMD
KLUK 021946Z 0220/0318 25010KT P6SM OVC035
      TEMPO 0220/0223 OVC028
     FM030000 29005KT P6SM OVC035
     FM030900 VRB03KT P6SM OVC028
     FM031700 30005KT P6SM BKN035=

USA.gov is the U.S. government's official web portal to all federal, state and local government web resources and services.